createdAt,value
2018-09-29T00:04:20.831Z,11.43
2018-09-29T00:09:22.951Z,11.16
2018-09-29T00:14:25.379Z,11.01
2018-09-29T00:19:27.564Z,11.02
2018-09-29T00:24:30.119Z,11.06
2018-09-29T00:29:32.257Z,10.89
2018-09-29T00:34:34.420Z,10.70
2018-09-29T00:39:36.625Z,10.70
2018-09-29T00:44:38.804Z,10.71
2018-09-29T00:49:40.954Z,10.73
2018-09-29T00:54:43.153Z,10.80
2018-09-29T00:59:45.280Z,10.70
2018-09-29T01:04:47.423Z,10.83
2018-09-29T01:09:49.563Z,10.69
2018-09-29T01:14:51.705Z,10.45
2018-09-29T01:19:53.848Z,10.40
2018-09-29T01:24:56.045Z,10.51
2018-09-29T01:29:58.159Z,10.49
2018-09-29T01:35:00.310Z,10.49
2018-09-29T01:40:02.412Z,10.40
2018-09-29T01:45:04.855Z,10.33
2018-09-29T01:50:07.035Z,10.25
2018-09-29T01:55:09.214Z,10.11
2018-09-29T02:00:11.347Z,10.22
2018-09-29T02:05:13.475Z,10.27
2018-09-29T02:10:15.628Z,10.06
2018-09-29T02:15:17.798Z,10.12
2018-09-29T02:20:19.983Z,10.20
2018-09-29T02:25:22.128Z,10.24
2018-09-29T02:30:24.276Z,10.18
2018-09-29T02:35:26.394Z,10.26
2018-09-29T02:40:28.540Z,10.33
2018-09-29T02:45:30.655Z,10.34
2018-09-29T02:50:32.782Z,10.35
2018-09-29T02:55:34.921Z,10.42
2018-09-29T03:00:37.035Z,10.35
2018-09-29T03:05:39.199Z,10.44
2018-09-29T03:10:41.346Z,10.35
2018-09-29T03:15:43.446Z,10.26
2018-09-29T03:20:45.558Z,10.20
2018-09-29T03:25:47.730Z,10.14
2018-09-29T03:30:49.896Z,10.09
2018-09-29T03:35:52.016Z,10.09
2018-09-29T03:40:54.145Z,10.05
2018-09-29T03:45:56.280Z,10.05
2018-09-29T03:50:58.408Z,10.15
2018-09-29T03:56:00.539Z,10.13
2018-09-29T04:01:02.671Z,10.01
2018-09-29T04:06:05.286Z,9.92
2018-09-29T04:11:07.399Z,9.97
2018-09-29T04:16:09.512Z,10.01
2018-09-29T04:21:11.668Z,10.09
2018-09-29T04:26:13.842Z,10.09
2018-09-29T04:31:16.010Z,10.09
2018-09-29T04:36:18.150Z,10.20
2018-09-29T04:41:20.271Z,10.27
2018-09-29T04:46:23.869Z,10.25
2018-09-29T04:51:25.986Z,10.43
2018-09-29T04:56:28.120Z,10.42
2018-09-29T05:01:30.242Z,10.43
2018-09-29T05:06:32.388Z,10.53
2018-09-29T05:11:34.619Z,10.56
2018-09-29T05:16:36.782Z,10.62
2018-09-29T05:21:38.938Z,10.63
2018-09-29T05:26:41.093Z,10.64
2018-09-29T05:31:43.270Z,10.78
2018-09-29T05:36:45.535Z,10.84
2018-09-29T05:41:47.700Z,10.82
2018-09-29T05:46:49.855Z,10.72
2018-09-29T05:51:51.991Z,10.77
2018-09-29T05:56:54.119Z,10.86
2018-09-29T06:01:56.227Z,10.84
2018-09-29T06:06:58.371Z,10.93
2018-09-29T06:12:00.510Z,11.00
2018-09-29T06:17:02.646Z,10.97
2018-09-29T06:22:04.979Z,11.04
2018-09-29T06:27:07.146Z,11.07
2018-09-29T06:32:09.267Z,11.10
2018-09-29T06:37:11.428Z,11.19
2018-09-29T06:42:13.590Z,11.22
2018-09-29T06:47:15.738Z,11.24
2018-09-29T06:52:18.082Z,11.34
2018-09-29T06:57:20.260Z,11.42
2018-09-29T07:02:22.430Z,11.50
2018-09-29T07:07:24.613Z,11.51
2018-09-29T07:12:26.752Z,11.58
2018-09-29T07:17:28.894Z,11.62
2018-09-29T07:22:31.045Z,11.69
2018-09-29T07:27:33.178Z,11.76
2018-09-29T07:32:35.348Z,12.02
2018-09-29T07:37:37.529Z,12.19
2018-09-29T07:42:39.698Z,12.43
2018-09-29T07:47:41.855Z,12.55
2018-09-29T07:52:43.990Z,12.70
2018-09-29T07:57:46.172Z,12.74
2018-09-29T08:02:48.281Z,12.83
2018-09-29T08:07:50.407Z,13.10
2018-09-29T08:12:52.590Z,13.06
2018-09-29T08:17:54.714Z,13.13
2018-09-29T08:22:56.847Z,13.18
2018-09-29T08:27:59.014Z,13.49
2018-09-29T08:33:01.200Z,13.61
2018-09-29T08:38:03.606Z,13.72
2018-09-29T08:43:05.772Z,13.78
2018-09-29T08:48:07.921Z,13.93
2018-09-29T08:53:10.972Z,14.18
2018-09-29T08:58:13.099Z,14.17
2018-09-29T09:03:15.336Z,14.03
2018-09-29T09:08:17.535Z,14.16
2018-09-29T09:13:19.721Z,14.41
2018-09-29T09:18:21.865Z,14.45
2018-09-29T09:23:24.058Z,14.37
2018-09-29T09:28:26.254Z,14.43
2018-09-29T09:33:28.417Z,14.42
2018-09-29T09:38:30.572Z,14.27
2018-09-29T09:43:32.850Z,14.53
2018-09-29T09:48:34.969Z,14.72
2018-09-29T09:53:37.171Z,14.81
2018-09-29T09:58:39.354Z,14.76
2018-09-29T10:03:41.548Z,14.68
2018-09-29T10:08:43.711Z,14.52
2018-09-29T10:13:45.882Z,14.84
2018-09-29T10:18:48.033Z,14.88
2018-09-29T10:23:50.194Z,14.82
2018-09-29T10:28:52.454Z,14.90
2018-09-29T10:33:54.642Z,14.95
2018-09-29T10:38:56.840Z,15.39
2018-09-29T10:43:59.046Z,15.74
2018-09-29T10:49:01.356Z,15.90
2018-09-29T10:54:03.560Z,16.09
2018-09-29T10:59:05.836Z,16.56
2018-09-29T11:04:08.711Z,16.59
2018-09-29T11:09:11.636Z,16.94
2018-09-29T11:14:13.832Z,17.49
2018-09-29T11:19:16.012Z,17.31
2018-09-29T11:24:18.210Z,16.95
2018-09-29T11:29:20.459Z,16.84
2018-09-29T11:34:23.056Z,16.28
2018-09-29T11:39:25.343Z,16.98
2018-09-29T11:44:27.513Z,17.02
2018-09-29T11:49:29.844Z,16.52
2018-09-29T11:54:32.045Z,16.10
2018-09-29T11:59:34.255Z,16.06
2018-09-29T12:04:36.695Z,16.05
2018-09-29T12:09:39.392Z,15.85
2018-09-29T12:14:41.617Z,15.79
2018-09-29T12:19:43.803Z,15.81
2018-09-29T12:24:45.990Z,15.73
2018-09-29T12:29:48.268Z,15.62
2018-09-29T12:34:50.463Z,15.78
2018-09-29T12:39:52.664Z,16.78
2018-09-29T12:44:54.886Z,18.60
2018-09-29T12:49:57.023Z,19.70
2018-09-29T12:54:59.193Z,18.63
2018-09-29T13:00:01.358Z,17.25
2018-09-29T13:05:06.451Z,16.70
2018-09-29T13:10:08.606Z,16.50
2018-09-29T13:15:10.814Z,16.24
2018-09-29T13:20:13.001Z,16.09
2018-09-29T13:25:15.141Z,15.87
2018-09-29T13:30:17.322Z,15.73
2018-09-29T13:35:19.523Z,15.46
2018-09-29T13:40:21.742Z,15.37
2018-09-29T13:45:23.918Z,15.23
2018-09-29T13:50:26.140Z,15.18
2018-09-29T13:55:28.315Z,14.98
2018-09-29T14:00:30.619Z,14.95
2018-09-29T14:05:32.794Z,14.83
2018-09-29T14:10:34.992Z,14.83
2018-09-29T14:15:37.170Z,14.93
2018-09-29T14:20:39.329Z,15.00
2018-09-29T14:25:41.525Z,14.96
2018-09-29T14:30:43.780Z,14.94
2018-09-29T14:35:45.956Z,14.87
2018-09-29T14:40:48.186Z,14.81
2018-09-29T14:45:50.393Z,14.80
2018-09-29T14:50:52.601Z,14.84
2018-09-29T14:55:54.804Z,14.84
2018-09-29T15:00:57.052Z,14.78
2018-09-29T15:05:59.259Z,14.67
2018-09-29T15:11:01.493Z,14.68
2018-09-29T15:16:03.680Z,14.71
2018-09-29T15:21:06.043Z,14.80
2018-09-29T15:26:08.278Z,14.81
2018-09-29T15:31:10.451Z,14.81
2018-09-29T15:36:12.690Z,14.95
2018-09-29T15:41:14.926Z,14.78
2018-09-29T15:46:17.140Z,14.76
2018-09-29T15:51:19.344Z,14.68
2018-09-29T15:56:21.488Z,14.76
2018-09-29T16:01:23.670Z,14.76
2018-09-29T16:06:25.835Z,14.75
2018-09-29T16:11:28.013Z,14.68
2018-09-29T16:16:30.182Z,14.68
2018-09-29T16:21:32.392Z,14.50
2018-09-29T16:26:34.761Z,14.52
2018-09-29T16:31:37.020Z,14.44
2018-09-29T16:36:39.187Z,14.29
2018-09-29T16:41:41.851Z,14.40
2018-09-29T16:46:44.060Z,14.35
2018-09-29T16:51:49.255Z,14.25
2018-09-29T16:56:51.418Z,14.26
2018-09-29T17:01:53.612Z,14.18
2018-09-29T17:06:55.816Z,14.14
2018-09-29T17:11:57.974Z,14.13
2018-09-29T17:17:00.192Z,14.08
2018-09-29T17:22:02.372Z,13.58
2018-09-29T17:27:04.674Z,14.02
2018-09-29T17:32:06.927Z,14.01
2018-09-29T17:37:09.113Z,13.97
2018-09-29T17:42:11.338Z,13.94
2018-09-29T17:47:13.546Z,13.90
2018-09-29T17:52:15.740Z,13.82
2018-09-29T17:57:18.716Z,13.75
2018-09-29T18:02:20.896Z,13.65
2018-09-29T18:07:23.122Z,13.57
2018-09-29T18:12:25.355Z,13.49
2018-09-29T18:17:27.584Z,13.33
2018-09-29T18:22:29.782Z,13.21
2018-09-29T18:27:31.971Z,13.10
2018-09-29T18:32:34.231Z,13.06
2018-09-29T18:37:36.448Z,13.00
2018-09-29T18:42:38.607Z,12.96
2018-09-29T18:47:40.763Z,12.91
2018-09-29T18:52:43.001Z,12.81
2018-09-29T18:57:45.217Z,12.86
2018-09-29T19:02:47.390Z,12.84
2018-09-29T19:07:50.336Z,12.81
2018-09-29T19:12:52.673Z,12.84
2018-09-29T19:17:55.419Z,12.79
2018-09-29T19:22:57.620Z,12.91
2018-09-29T19:28:00.071Z,12.92
2018-09-29T19:33:02.410Z,12.93
2018-09-29T19:38:04.903Z,12.90
2018-09-29T19:43:07.150Z,12.93
2018-09-29T19:48:09.354Z,12.88
2018-09-29T19:53:11.548Z,12.84
2018-09-29T19:58:13.810Z,12.73
2018-09-29T20:03:16.016Z,12.65
2018-09-29T20:08:18.616Z,12.63
2018-09-29T20:13:20.875Z,12.60
2018-09-29T20:18:23.065Z,12.66
2018-09-29T20:23:25.249Z,12.58
2018-09-29T20:28:27.487Z,12.49
2018-09-29T20:33:29.701Z,12.34
2018-09-29T20:38:31.916Z,12.39
2018-09-29T20:43:34.087Z,12.38
2018-09-29T20:48:36.499Z,12.41
2018-09-29T20:53:38.678Z,12.41
2018-09-29T20:58:40.895Z,12.33
2018-09-29T21:03:43.126Z,12.32
2018-09-29T21:08:45.315Z,12.34
2018-09-29T21:13:47.515Z,12.32
2018-09-29T21:18:49.658Z,12.32
2018-09-29T21:23:51.797Z,12.31
2018-09-29T21:28:53.949Z,12.27
2018-09-29T21:33:56.124Z,12.23
2018-09-29T21:38:58.315Z,12.26
2018-09-29T21:44:00.478Z,12.29
2018-09-29T21:49:02.726Z,12.24
2018-09-29T21:54:04.866Z,12.22
2018-09-29T21:59:07.116Z,12.21
2018-09-29T22:04:09.308Z,12.21
2018-09-29T22:09:16.043Z,12.07
2018-09-29T22:14:18.245Z,12.14
2018-09-29T22:19:20.374Z,12.15
2018-09-29T22:24:22.547Z,12.11
2018-09-29T22:29:24.785Z,12.11
2018-09-29T22:34:27.000Z,12.04
2018-09-29T22:39:29.196Z,12.00
2018-09-29T22:44:31.361Z,11.93
2018-09-29T22:49:33.565Z,11.90
2018-09-29T22:54:36.323Z,11.86
2018-09-29T22:59:39.059Z,11.72
2018-09-29T23:04:41.501Z,11.76
2018-09-29T23:09:43.679Z,11.74
2018-09-29T23:14:45.810Z,11.70
2018-09-29T23:19:47.954Z,11.63
2018-09-29T23:24:50.164Z,11.47
2018-09-29T23:29:52.402Z,11.39
2018-09-29T23:34:54.574Z,11.46
2018-09-29T23:39:56.826Z,11.40
2018-09-29T23:44:59.042Z,11.36
2018-09-29T23:50:01.264Z,11.23
2018-09-29T23:55:06.485Z,11.25
